Meteo Giornale » Osservazioni meteo Stati Uniti (USA) » Waterloo
ore: 04:54 - Osservazioni Meteo Waterloo
Lat. 42° 33' N Lon. 92° 24' W Alt. 266 metri s.l.m.
22 °C
Temporale nelle vicinanze Foschia
Temp. 24 Ore
20 °C
32 °C
Ovest/Sud-Ovest
7.4 Km/h
Dew point 22 °C
Umidità 100 %
Visibilità 5 Km
Il sole sorge alle ore 06:34
Il sole tramonta alle ore 19:44
| Data e Ora | Cielo e Fenomeni | T °C | DP °C | Um. % | Pres. hPa | Vis. km | Vento km/h | |
|---|---|---|---|---|---|---|---|---|
| Oggi h: 04:54 | Temporale nelle vicinanze Foschia | 22 | 22 | 100 | 1014 | 5 | O/SO 7.4 | |
| Oggi h: 04:52 | Temporale nelle vicinanze Foschia | 22 | 22 | 100 | 1014 | 5 | N 0 | |
| Oggi h: 04:35 | Temporale Foschia | 21 | 21 | 100 | 1014 | 5 | NE 9.3 | |
| Oggi h: 04:33 | Temporale Foschia | 21 | 21 | 100 | 1013 | 2 | NE 11.1 | |
| Oggi h: 04:27 | Temporale Foschia | 21 | 21 | 100 | 1014 | 5 | N 5.5 | |
| Oggi h: 03:54 | Nebbia | 20 | 20 | 100 | 1013 | 2 | N 0 | |
| Oggi h: 03:40 | Nebbia | 21 | 21 | 100 | 1013 | 2 | N 0 | |
| Oggi h: 03:28 | Nebbia | 21 | 21 | 100 | 1013 | 2 | N 0 | |
| Oggi h: 02:54 | Foschia | 21 | 21 | 100 | 1013 | 5 | N 0 | |
| Oggi h: 02:29 | Nebbia | 22 | 22 | 100 | 1013 | 2 | N 0 | |
| Oggi h: 02:10 | Foschia | 21 | 21 | 100 | 1014 | 2 | N 0 | |
| Oggi h: 02:00 | Foschia | 21 | 21 | 100 | 1013 | 5 | N 0 | |
| Oggi h: 01:54 | Foschia | 21 | 21 | 100 | 1014 | 3 | N 0 | |
| Oggi h: 01:46 | Foschia | 21 | 21 | 100 | 1014 | 5 | N 0 | |
| Oggi h: 01:44 | Foschia | 21 | 21 | 100 | 1014 | 2 | N 0 | |
| Oggi h: 01:38 | Foschia | 22 | 22 | 100 | 1014 | 5 | N 5.5 | |
| Oggi h: 01:34 | Foschia | 22 | 22 | 100 | 1014 | 2 | N 0 | |
| Oggi h: 01:29 | Foschia | 22 | 21 | 94 | 1014 | 6 | N 0 | |
| Oggi h: 01:27 | Foschia | 22 | 22 | 100 | 1014 | 2 | N 0 | |
| Oggi h: 01:16 | Nebbia | 22 | 22 | 100 | 1014 | 2 | N 0 | |
| Oggi h: 01:09 | Foschia | 22 | 22 | 100 | 1014 | 2 | N 5.5 | |
| Oggi h: 00:54 | Foschia | 22 | 22 | 100 | 1014 | 5 | N 0 | |
| Oggi h: 00:51 | Foschia | 22 | 22 | 100 | 1014 | 2 | N 0 | |
| Oggi h: 00:47 | Foschia | 22 | 22 | 100 | 1014 | 5 | N 0 | |
| Oggi h: 00:20 | Nebbia | 23 | 23 | 100 | 1013 | 2 | N 0 | |
| Oggi h: 00:05 | Foschia | 23 | 23 | 100 | 1013 | 5 | N 0 | |
| Oggi h: 00:01 | Foschia | 22 | 22 | 100 | 1013 | 2 | N 0 | |
| Ieri h: 23:54 | Foschia | 23 | 23 | 100 | 1013 | 5 | N 0 | |
| Ieri h: 23:52 | Foschia | 23 | 23 | 100 | 1013 | 5 | N 0 | |
| Ieri h: 23:35 | Foschia | 22 | 22 | 100 | 1013 | 5 | N 0 | |
| Ieri h: 23:30 | Foschia | 22 | 22 | 100 | 1013 | 5 | N 0 | |
| Ieri h: 23:26 | Foschia | 22 | 22 | 100 | 1013 | 2 | N 0 | |
| Ieri h: 23:19 | Nebbia | 22 | 22 | 100 | 1013 | 2 | N 5.5 | |
| Ieri h: 23:09 | Foschia | 23 | 22 | 94 | 1013 | 5 | N 0 | |
| Ieri h: 23:05 | Foschia | 23 | 23 | 100 | 1013 | 2 | N 0 | |
| Ieri h: 22:54 | Poco Nuvoloso | 23 | 23 | 100 | 1013 | 14 | N 0 | |
| Ieri h: 21:54 | Sereno | 25 | 24 | 94 | 1012 | 14 | N 0 | |
| Ieri h: 21:50 | Foschia | 25 | 24 | 94 | 1012 | 5 | N 0 | |
| Ieri h: 21:40 | Foschia | 24 | 24 | 100 | 1012 | 5 | N 0 | |
| Ieri h: 20:54 | Sereno | 26 | 25 | 94 | 1012 | 10 | N 0 | |
| Ieri h: 19:54 | Sereno | 28 | 25 | 83 | 1012 | 10 | N 5.5 | |
| Ieri h: 18:54 | Sereno | 31 | 26 | 74 | 1011 | 10 | O/NO 9.3 | |
| Ieri h: 17:54 | Sereno | 31 | 25 | 70 | 1011 | 10 | O/SO 11.1 | |
| Ieri h: 16:54 | Sereno | 32 | 24 | 62 | 1011 | 10 | O/SO 9.3 | |
| Ieri h: 15:54 | Sereno | 31 | 24 | 66 | 1011 | 10 | SO 13 | |
| Ieri h: 14:54 | Sereno | 29 | 23 | 70 | 1011 | 10 | S 14.8 | |
| Ieri h: 13:54 | Nuvoloso | 29 | 23 | 70 | 1010 | 10 | SE 16.7 | |
| Ieri h: 12:54 | Sereno | 29 | 22 | 66 | 1011 | 10 | N 5.5 | |
| Ieri h: 11:54 | Sereno | 28 | 22 | 69 | 1011 | 10 | S 9.3 | |
| Ieri h: 10:54 | Sereno | 27 | 21 | 69 | 1011 | 10 | O 9.3 | |
| Ieri h: 09:54 | Sereno | 26 | 20 | 69 | 1011 | 10 | SO 16.7 | |
| Ieri h: 08:54 | Sereno | 26 | 19 | 65 | 1010 | 10 | SO 14.8 | |
| Ieri h: 07:54 | Sereno | 24 | 19 | 73 | 1010 | 10 | S/SO 11.1 | |
| Ieri h: 06:54 | Sereno | 23 | 19 | 78 | 1010 | 10 | S/SO 9.3 | |
| Ieri h: 05:54 | Sereno | 22 | 19 | 83 | 1009 | 10 | S/SE 9.3 | |



